createdAt,value
2023-03-06T00:00:17.102Z,27.99
2023-03-06T00:01:16.442Z,28.33
2023-03-06T00:02:16.400Z,29.55
2023-03-06T00:03:16.400Z,26.29
2023-03-06T00:54:52.146Z,25.00
2023-03-06T00:55:53.068Z,25.00
2023-03-06T00:56:53.040Z,25.00
2023-03-06T00:57:53.034Z,25.00
2023-03-06T00:58:53.028Z,25.00
2023-03-06T00:59:53.027Z,25.00
2023-03-06T01:00:53.118Z,0.00
2023-03-06T01:01:53.077Z,0.00
2023-03-06T01:02:52.981Z,0.00
2023-03-06T01:03:53.010Z,0.00
2023-03-06T01:04:53.000Z,0.00
2023-03-06T01:05:52.984Z,0.00
2023-03-06T01:06:52.972Z,0.00
2023-03-06T01:07:52.974Z,1.89
2023-03-06T01:08:52.966Z,17.48
2023-03-06T01:09:52.939Z,25.00
2023-03-06T01:10:52.979Z,25.00
2023-03-06T01:11:52.905Z,25.19
2023-03-06T01:12:52.897Z,25.24
2023-03-06T01:13:52.933Z,26.77
2023-03-06T01:14:52.881Z,28.46
2023-03-06T01:15:52.884Z,25.00
2023-03-06T01:16:52.893Z,27.30
2023-03-06T01:17:52.854Z,25.00
2023-03-06T01:18:52.842Z,25.00
2023-03-06T01:19:52.865Z,25.00
2023-03-06T01:20:52.832Z,28.83
2023-03-06T01:21:52.823Z,26.02
2023-03-06T01:22:52.807Z,25.25
2023-03-06T01:23:52.801Z,25.00
2023-03-06T01:24:52.791Z,29.02
2023-03-06T01:25:52.775Z,25.00
2023-03-06T01:26:52.805Z,25.18
2023-03-06T01:27:52.764Z,25.46
2023-03-06T01:28:52.754Z,27.51
2023-03-06T01:29:52.752Z,28.45
2023-03-06T01:30:52.735Z,27.69
2023-03-06T01:31:52.791Z,27.85
2023-03-06T01:32:52.726Z,30.20
2023-03-06T01:33:52.708Z,27.46
2023-03-06T01:34:52.710Z,27.58
2023-03-06T01:35:52.738Z,27.83
2023-03-06T01:36:52.690Z,30.89
2023-03-06T01:37:52.678Z,25.00
2023-03-06T01:38:52.671Z,31.47
2023-03-06T01:39:52.675Z,26.24
2023-03-06T01:40:52.650Z,26.08
2023-03-06T01:41:52.645Z,27.36
2023-03-06T01:42:52.676Z,26.96
2023-03-06T01:43:52.634Z,30.07
2023-03-06T01:44:52.621Z,26.82
2023-03-06T01:45:52.653Z,23.74
2023-03-06T01:46:52.605Z,35.17
2023-03-06T01:47:52.602Z,25.69
2023-03-06T01:48:52.588Z,27.12
2023-03-06T01:49:52.579Z,30.78
2023-03-06T01:50:52.574Z,28.61
2023-03-06T01:51:52.583Z,29.99
2023-03-06T01:52:52.562Z,28.34
2023-03-06T01:53:52.543Z,26.54
2023-03-06T01:54:52.533Z,25.95
2023-03-06T01:55:52.537Z,26.27
2023-03-06T01:56:52.522Z,28.11
2023-03-06T01:57:52.508Z,28.72
2023-03-06T01:58:52.528Z,27.30
2023-03-06T01:59:52.504Z,29.01
2023-03-06T02:00:52.578Z,28.28
2023-03-06T02:01:52.527Z,27.70
2023-03-06T02:02:52.466Z,27.63
2023-03-06T02:03:53.407Z,27.75
2023-03-06T02:04:52.460Z,28.67
2023-03-06T02:05:53.409Z,29.12
2023-03-06T02:06:52.487Z,26.72
2023-03-06T02:07:52.429Z,27.89
2023-03-06T02:08:52.411Z,32.66
2023-03-06T02:09:52.404Z,26.18
2023-03-06T02:10:52.910Z,27.32
2023-03-06T02:11:52.388Z,27.41
2023-03-06T02:12:52.383Z,28.51
2023-03-06T02:13:52.379Z,30.56
2023-03-06T02:14:52.391Z,32.49
2023-03-06T02:15:52.364Z,28.62
2023-03-06T02:16:52.453Z,27.24
2023-03-06T02:17:52.347Z,30.93
2023-03-06T02:18:52.330Z,30.05
2023-03-06T02:19:52.332Z,28.44
2023-03-06T02:20:52.314Z,28.84
2023-03-06T02:21:52.315Z,29.18
2023-03-06T02:22:52.311Z,30.16
2023-03-06T02:23:52.283Z,30.00
2023-03-06T02:24:52.275Z,30.11
2023-03-06T02:25:52.942Z,29.00
2023-03-06T02:26:52.265Z,30.00
2023-03-06T02:27:52.261Z,26.86
2023-03-06T02:28:52.243Z,29.25
2023-03-06T02:29:52.232Z,29.18
2023-03-06T02:30:52.361Z,29.53
2023-03-06T02:31:52.222Z,28.30
2023-03-06T02:32:52.215Z,28.92
2023-03-06T02:33:52.203Z,28.74
2023-03-06T02:34:52.198Z,30.08
2023-03-06T02:35:52.301Z,30.47
2023-03-06T02:36:52.941Z,28.84
2023-03-06T02:37:52.191Z,30.37
2023-03-06T02:38:52.157Z,25.28
2023-03-06T02:39:52.151Z,26.76
2023-03-06T02:40:52.143Z,25.00
2023-03-06T02:41:52.129Z,27.26
2023-03-06T02:42:52.133Z,32.21
2023-03-06T02:43:52.139Z,28.94
2023-03-06T02:45:52.148Z,35.54
2023-03-06T02:46:52.954Z,30.23
2023-03-06T02:47:52.078Z,31.54
2023-03-06T02:48:52.068Z,28.72
2023-03-06T02:49:52.072Z,30.79
2023-03-06T02:50:52.051Z,27.81
2023-03-06T02:51:52.044Z,31.18
2023-03-06T02:52:52.060Z,26.02
2023-03-06T02:53:52.024Z,30.02
2023-03-06T02:54:52.020Z,33.50
2023-03-06T02:55:52.025Z,30.89
2023-03-06T02:56:51.994Z,29.90
2023-03-06T02:57:51.986Z,29.10
2023-03-06T02:58:51.977Z,32.08
2023-03-06T02:59:51.969Z,29.06
2023-03-06T03:00:51.958Z,28.89
2023-03-06T03:01:51.980Z,29.55
2023-03-06T03:02:51.960Z,31.28
2023-03-06T03:03:51.933Z,29.88
2023-03-06T03:04:51.979Z,33.28
2023-03-06T03:05:51.920Z,32.08
2023-03-06T03:06:51.904Z,32.15
2023-03-06T03:07:51.897Z,32.88
2023-03-06T03:08:51.892Z,30.61
2023-03-06T03:09:51.879Z,31.01
2023-03-06T03:10:51.875Z,29.33
2023-03-06T03:11:51.869Z,28.72
2023-03-06T03:12:51.852Z,31.34
2023-03-06T03:13:51.835Z,32.17
2023-03-06T03:14:51.835Z,32.89
2023-03-06T03:15:51.875Z,32.73
2023-03-06T03:16:51.823Z,31.32
2023-03-06T03:17:51.939Z,30.40
2023-03-06T03:18:51.830Z,32.83
2023-03-06T03:19:51.792Z,29.31
2023-03-06T03:20:51.788Z,30.38
2023-03-06T03:21:51.773Z,31.60
2023-03-06T03:22:51.785Z,32.33
2023-03-06T03:23:51.776Z,28.39
2023-03-06T03:24:51.829Z,31.48
2023-03-06T03:25:51.746Z,29.39
2023-03-06T03:26:51.736Z,32.10
2023-03-06T03:27:51.958Z,28.80
2023-03-06T03:28:51.726Z,27.55
2023-03-06T03:29:51.714Z,31.41
2023-03-06T03:30:51.748Z,27.94
2023-03-06T03:31:51.692Z,26.26
2023-03-06T03:32:51.696Z,27.87
2023-03-06T03:33:51.682Z,27.10
2023-03-06T03:34:51.697Z,27.21
2023-03-06T03:35:51.680Z,30.33
2023-03-06T03:36:51.656Z,29.54
2023-03-06T03:37:51.676Z,29.71
2023-03-06T03:38:51.638Z,31.17
2023-03-06T03:39:51.639Z,27.76
2023-03-06T03:40:51.614Z,27.97
2023-03-06T03:41:51.625Z,30.25
2023-03-06T03:42:52.456Z,31.30
2023-03-06T03:43:50.594Z,30.37
2023-03-06T03:44:51.590Z,31.17
2023-03-06T03:45:51.586Z,35.86
2023-03-06T03:46:51.619Z,29.64
2023-03-06T03:47:51.556Z,32.94
2023-03-06T03:48:51.551Z,33.76
2023-03-06T03:49:51.557Z,28.46
2023-03-06T03:50:51.552Z,27.85
2023-03-06T03:51:51.521Z,30.23
2023-03-06T03:52:51.513Z,28.52
2023-03-06T03:53:51.514Z,32.04
2023-03-06T03:55:51.495Z,31.86
2023-03-06T03:56:51.485Z,31.73
2023-03-06T03:57:51.468Z,32.17
2023-03-06T03:58:51.462Z,27.54
2023-03-06T03:59:51.463Z,28.60
2023-03-06T04:00:51.447Z,32.84
2023-03-06T04:01:51.479Z,28.19
2023-03-06T04:02:51.428Z,31.25
2023-03-06T04:03:51.960Z,32.15
2023-03-06T04:04:51.444Z,29.89
2023-03-06T04:05:51.403Z,29.60
2023-03-06T04:06:51.421Z,30.18
2023-03-06T04:07:51.388Z,30.71
2023-03-06T04:08:51.373Z,28.28
2023-03-06T04:09:51.369Z,28.92
2023-03-06T04:10:51.358Z,31.66
2023-03-06T04:11:51.360Z,29.32
2023-03-06T04:12:51.974Z,30.10
2023-03-06T04:13:51.966Z,28.40
2023-03-06T04:14:51.338Z,28.26
2023-03-06T04:15:51.377Z,29.41
2023-03-06T04:16:51.312Z,30.12
2023-03-06T04:17:51.302Z,28.16
2023-03-06T04:18:51.963Z,33.37
2023-03-06T04:19:51.277Z,31.57
2023-03-06T04:20:51.272Z,28.69
2023-03-06T04:21:51.964Z,28.70
2023-03-06T04:22:51.290Z,27.97
2023-03-06T04:23:51.243Z,29.93
2023-03-06T04:24:51.237Z,29.83
2023-03-06T04:25:51.235Z,27.84
2023-03-06T04:26:51.216Z,31.19
2023-03-06T04:27:51.207Z,30.46
2023-03-06T04:28:51.213Z,29.41
2023-03-06T04:29:51.209Z,33.07
2023-03-06T04:30:51.186Z,29.50
2023-03-06T04:31:51.175Z,26.27
2023-03-06T04:32:51.170Z,27.91
2023-03-06T04:33:51.165Z,27.58
2023-03-06T04:34:51.149Z,34.49
2023-03-06T04:35:51.199Z,28.54
2023-03-06T04:37:51.129Z,27.09
2023-03-06T04:38:51.554Z,27.48
2023-03-06T04:39:51.128Z,27.95
2023-03-06T04:40:51.977Z,31.08
2023-03-06T04:41:51.095Z,32.28
2023-03-06T04:42:51.085Z,29.45
2023-03-06T04:43:51.076Z,31.46
2023-03-06T04:44:51.075Z,30.90
2023-03-06T04:45:51.124Z,33.72
2023-03-06T04:46:51.053Z,31.17
2023-03-06T04:47:51.984Z,27.25
2023-03-06T04:48:51.029Z,29.04
2023-03-06T04:49:51.045Z,29.54
2023-03-06T04:50:51.015Z,31.99
2023-03-06T04:51:51.008Z,27.20
2023-03-06T04:52:50.992Z,28.75
2023-03-06T04:53:50.986Z,33.39
2023-03-06T04:54:51.015Z,28.27
2023-03-06T04:55:50.981Z,30.09
2023-03-06T04:56:50.960Z,29.37
2023-03-06T04:57:50.950Z,33.66
2023-03-06T04:58:50.960Z,29.18
2023-03-06T04:59:50.930Z,29.43
2023-03-06T05:00:51.032Z,26.19
2023-03-06T05:01:50.953Z,28.94
2023-03-06T05:02:50.916Z,28.57
2023-03-06T05:03:50.970Z,29.55
2023-03-06T05:04:50.904Z,27.47
2023-03-06T05:05:50.877Z,28.35
2023-03-06T05:06:50.870Z,28.49
2023-03-06T05:07:50.868Z,29.53
2023-03-06T05:08:50.854Z,28.97
2023-03-06T05:09:50.857Z,30.50
2023-03-06T05:10:50.861Z,27.79
2023-03-06T05:11:50.819Z,29.32
2023-03-06T05:12:50.849Z,29.40
2023-03-06T05:13:50.809Z,30.24
2023-03-06T05:14:50.794Z,26.91
2023-03-06T05:15:50.787Z,32.19
2023-03-06T05:16:50.824Z,31.07
2023-03-06T05:17:50.778Z,27.30
2023-03-06T05:18:50.904Z,28.49
2023-03-06T05:19:50.763Z,29.43
2023-03-06T05:20:50.743Z,32.14
2023-03-06T05:21:50.734Z,28.34
2023-03-06T05:22:50.723Z,29.16
2023-03-06T05:23:50.736Z,28.89
2023-03-06T05:24:50.706Z,31.34
2023-03-06T05:25:50.702Z,32.78
2023-03-06T05:26:50.708Z,31.69
2023-03-06T05:27:50.681Z,29.73
2023-03-06T05:28:50.675Z,27.60
2023-03-06T05:29:50.658Z,27.18
2023-03-06T05:30:50.658Z,30.16
2023-03-06T05:31:51.570Z,30.52
2023-03-06T05:32:50.719Z,29.56
2023-03-06T05:33:50.624Z,28.09
2023-03-06T05:34:50.633Z,31.67
2023-03-06T05:35:50.681Z,31.88
2023-03-06T05:36:50.603Z,31.48
2023-03-06T05:37:50.660Z,30.34
2023-03-06T05:38:50.587Z,35.20
2023-03-06T05:39:50.591Z,32.63
2023-03-06T05:40:50.618Z,30.42
2023-03-06T05:41:50.560Z,30.78
2023-03-06T05:42:50.577Z,29.67
2023-03-06T05:43:50.546Z,30.41
2023-03-06T05:44:50.540Z,31.63
2023-03-06T05:45:50.678Z,28.53
2023-03-06T05:46:50.513Z,32.38
2023-03-06T05:47:50.505Z,27.48
2023-03-06T05:48:50.501Z,30.03
2023-03-06T05:49:50.489Z,30.91
2023-03-06T05:50:50.488Z,28.11
2023-03-06T05:51:51.014Z,28.87
2023-03-06T05:52:50.466Z,33.76
2023-03-06T05:53:50.478Z,31.86
2023-03-06T05:54:50.441Z,28.51
2023-03-06T05:55:51.017Z,32.84
2023-03-06T05:56:50.427Z,30.64
2023-03-06T05:57:50.418Z,32.73
2023-03-06T05:58:50.563Z,32.39
2023-03-06T05:59:50.396Z,32.26
2023-03-06T06:00:50.462Z,30.78
2023-03-06T06:01:50.383Z,29.80
2023-03-06T06:02:50.364Z,29.31
2023-03-06T06:03:50.644Z,30.00
2023-03-06T06:04:50.373Z,29.91
2023-03-06T06:05:50.354Z,32.19
2023-03-06T06:06:50.340Z,31.84
2023-03-06T06:07:53.016Z,30.07
2023-03-06T06:08:50.313Z,30.19
2023-03-06T06:09:50.305Z,30.59
2023-03-06T06:10:52.868Z,30.55
2023-03-06T06:11:50.301Z,30.35
2023-03-06T06:12:50.290Z,30.92
2023-03-06T06:13:50.278Z,32.49
2023-03-06T06:14:50.542Z,31.98
2023-03-06T06:15:51.222Z,33.30
2023-03-06T06:16:50.260Z,31.93
2023-03-06T06:17:50.463Z,31.64
2023-03-06T06:18:50.237Z,28.62
2023-03-06T06:19:50.224Z,29.33
2023-03-06T06:20:50.208Z,32.26
2023-03-06T06:21:50.209Z,33.22
2023-03-06T06:22:50.530Z,33.06
2023-03-06T06:23:50.188Z,33.51
2023-03-06T06:24:50.171Z,36.27
2023-03-06T06:25:50.170Z,35.86
2023-03-06T06:26:50.156Z,38.06
2023-03-06T06:27:50.526Z,38.15
2023-03-06T06:28:50.536Z,40.21
2023-03-06T06:29:50.140Z,37.04
2023-03-06T06:30:50.578Z,41.78
2023-03-06T06:31:51.036Z,42.12
2023-03-06T06:32:50.121Z,41.76
2023-03-06T06:33:50.099Z,44.24
2023-03-06T06:34:50.098Z,45.70
2023-03-06T06:35:50.124Z,44.01
2023-03-06T06:36:52.241Z,43.30
2023-03-06T06:37:50.066Z,43.56
2023-03-06T06:38:50.079Z,44.29
2023-03-06T06:39:50.052Z,44.98
2023-03-06T06:41:26.757Z,46.55
2023-03-06T06:42:03.001Z,43.81
2023-03-06T06:42:50.037Z,44.08
2023-03-06T06:43:50.054Z,46.24
2023-03-06T06:44:50.010Z,49.09
2023-03-06T06:45:50.539Z,52.73
2023-03-06T06:47:21.325Z,57.84
2023-03-06T06:47:50.026Z,44.07
2023-03-06T06:48:49.968Z,46.81
2023-03-06T06:49:50.541Z,50.79
2023-03-06T06:50:49.960Z,56.68
2023-03-06T06:51:50.041Z,63.79
2023-03-06T06:52:49.946Z,65.04
2023-03-06T06:53:50.571Z,68.38
2023-03-06T06:55:50.099Z,71.49
2023-03-06T06:56:50.547Z,73.06
2023-03-06T06:57:49.927Z,76.13
2023-03-06T06:58:49.919Z,84.01
2023-03-06T06:59:52.365Z,94.79
2023-03-06T07:00:49.921Z,72.22
2023-03-06T07:01:50.092Z,76.34
2023-03-06T07:02:49.925Z,83.25
2023-03-06T07:03:49.883Z,98.26
2023-03-06T07:05:03.231Z,119.94
2023-03-06T07:05:49.821Z,72.90
2023-03-06T07:06:50.247Z,80.50
2023-03-06T07:07:49.810Z,94.62
2023-03-06T07:08:49.791Z,114.98
2023-03-06T07:09:49.789Z,149.75
2023-03-06T07:10:50.576Z,154.34
2023-03-06T07:11:53.240Z,156.12
2023-03-06T07:12:52.998Z,156.64
2023-03-06T07:13:49.756Z,156.94
2023-03-06T07:14:49.767Z,159.71
2023-03-06T07:15:49.797Z,164.41
2023-03-06T07:16:50.054Z,174.11
2023-03-06T07:17:50.754Z,188.90
2023-03-06T07:18:49.736Z,197.09
2023-03-06T07:19:49.764Z,203.96
2023-03-06T07:20:50.049Z,206.50
2023-03-06T07:21:49.684Z,211.65
2023-03-06T07:22:51.686Z,215.30
2023-03-06T07:23:49.665Z,221.98
2023-03-06T07:25:50.085Z,222.89
2023-03-06T07:26:49.632Z,223.86
2023-03-06T07:27:53.753Z,227.25
2023-03-06T07:28:52.617Z,223.33
2023-03-06T07:29:49.641Z,223.29
2023-03-06T07:30:50.057Z,226.15
2023-03-06T07:31:49.612Z,231.26
2023-03-06T07:32:49.584Z,240.33
2023-03-06T07:33:49.569Z,255.21
2023-03-06T07:34:49.591Z,248.44
2023-03-06T07:35:49.580Z,249.29
2023-03-06T07:36:49.580Z,250.00
2023-03-06T07:37:49.560Z,249.28
2023-03-06T07:38:49.534Z,250.00
2023-03-06T07:39:49.565Z,247.30
2023-03-06T07:40:49.505Z,249.57
2023-03-06T07:41:50.494Z,247.05
2023-03-06T07:42:49.498Z,250.00
2023-03-06T07:43:49.474Z,248.45
2023-03-06T07:44:49.563Z,248.81
2023-03-06T07:45:49.470Z,249.21
2023-03-06T07:46:49.585Z,249.85
2023-03-06T07:47:49.568Z,246.85
2023-03-06T07:48:49.428Z,249.54
2023-03-06T07:49:49.595Z,248.50
2023-03-06T07:50:50.078Z,249.27
2023-03-06T07:51:49.397Z,247.75
2023-03-06T07:52:49.391Z,248.99
2023-03-06T07:53:49.401Z,247.91
2023-03-06T07:54:49.371Z,249.51
2023-03-06T07:55:49.597Z,245.88
2023-03-06T07:56:49.357Z,249.41
2023-03-06T07:57:49.583Z,250.00
2023-03-06T07:58:49.352Z,248.89
2023-03-06T07:59:50.365Z,249.34
2023-03-06T08:01:49.316Z,248.46
2023-03-06T08:02:49.647Z,249.20
2023-03-06T08:03:49.384Z,250.66
2023-03-06T08:04:49.609Z,252.47
2023-03-06T08:05:49.269Z,258.45
2023-03-06T08:06:49.300Z,247.39
2023-03-06T08:07:49.590Z,250.00
2023-03-06T08:08:49.246Z,248.37
2023-03-06T08:09:49.272Z,250.00
2023-03-06T08:10:49.268Z,249.82
2023-03-06T08:11:49.231Z,247.47
2023-03-06T08:12:49.659Z,247.44
2023-03-06T08:13:49.288Z,249.56
2023-03-06T08:14:49.212Z,247.82
2023-03-06T08:15:49.379Z,246.53
2023-03-06T08:16:49.610Z,248.81
2023-03-06T08:17:49.315Z,248.03
2023-03-06T08:18:49.178Z,248.50
2023-03-06T08:19:49.136Z,249.96
2023-03-06T08:20:49.155Z,245.71
2023-03-06T08:21:49.156Z,247.81
2023-03-06T08:22:49.694Z,247.76
2023-03-06T08:23:49.143Z,249.75
2023-03-06T08:24:49.110Z,248.22
2023-03-06T08:25:49.274Z,249.58
2023-03-06T08:26:49.067Z,249.75
2023-03-06T08:27:49.094Z,248.52
2023-03-06T08:28:50.089Z,248.98
2023-03-06T08:29:49.077Z,248.26
2023-03-06T08:30:49.063Z,247.81
2023-03-06T08:31:49.096Z,246.92
2023-03-06T08:32:49.110Z,246.96
2023-03-06T08:33:49.033Z,248.46
2023-03-06T08:34:49.017Z,247.83
2023-03-06T08:35:49.074Z,249.51
2023-03-06T08:36:49.008Z,248.72
2023-03-06T08:37:49.098Z,249.29
2023-03-06T08:38:49.013Z,249.83
2023-03-06T08:39:48.957Z,248.38
2023-03-06T08:40:49.100Z,248.76
2023-03-06T08:41:51.586Z,249.78
2023-03-06T08:42:48.929Z,249.95
2023-03-06T08:43:49.094Z,250.27
2023-03-06T08:44:48.917Z,250.94
2023-03-06T08:45:48.918Z,264.77
2023-03-06T08:46:49.126Z,280.92
2023-03-06T08:47:48.873Z,256.80
2023-03-06T08:48:48.862Z,247.94
2023-03-06T08:49:49.102Z,245.39
2023-03-06T08:50:49.848Z,243.64
2023-03-06T08:51:48.838Z,245.16
2023-03-06T08:52:52.586Z,244.26
2023-03-06T08:54:48.828Z,244.57
2023-03-06T08:55:48.799Z,245.73
2023-03-06T08:57:48.789Z,244.69
2023-03-06T08:58:49.113Z,245.78
2023-03-06T08:59:49.599Z,247.79
2023-03-06T09:00:48.922Z,249.25
2023-03-06T09:01:48.742Z,253.79
2023-03-06T09:02:48.737Z,250.00
2023-03-06T09:03:49.097Z,247.21
2023-03-06T09:04:48.713Z,246.95
2023-03-06T09:05:48.713Z,249.71
2023-03-06T09:06:52.138Z,249.72
2023-03-06T09:07:48.695Z,250.00
2023-03-06T09:08:49.105Z,250.21
2023-03-06T09:09:48.822Z,250.51
2023-03-06T09:10:49.172Z,251.74
2023-03-06T09:11:48.652Z,249.34
2023-03-06T09:12:51.301Z,249.01
2023-03-06T09:13:48.657Z,249.17
2023-03-06T09:14:48.648Z,249.32
2023-03-06T09:15:48.621Z,249.38
2023-03-06T09:16:49.642Z,247.73
2023-03-06T09:17:48.658Z,249.11
2023-03-06T09:18:48.635Z,249.55
2023-03-06T09:19:48.584Z,247.93
2023-03-06T09:20:48.584Z,247.86
2023-03-06T09:21:48.573Z,243.96
2023-03-06T09:22:48.553Z,245.85
2023-03-06T09:23:48.622Z,246.66
2023-03-06T09:24:48.546Z,245.91
2023-03-06T09:25:48.654Z,249.71
2023-03-06T09:26:51.133Z,249.90
2023-03-06T09:27:55.462Z,250.03
2023-03-06T09:28:48.505Z,250.28
2023-03-06T09:29:48.615Z,251.00
2023-03-06T09:30:48.556Z,251.61
2023-03-06T09:31:48.491Z,252.65
2023-03-06T09:32:48.645Z,253.71
2023-03-06T09:33:49.116Z,249.18
2023-03-06T09:34:48.452Z,247.55
2023-03-06T09:35:48.508Z,245.13
2023-03-06T09:36:56.727Z,247.50
2023-03-06T09:37:48.440Z,247.65
2023-03-06T09:38:48.402Z,248.18
2023-03-06T09:39:48.622Z,248.69
2023-03-06T09:40:49.237Z,248.58
2023-03-06T09:41:48.665Z,249.95
2023-03-06T09:42:48.381Z,249.69
2023-03-06T09:43:48.388Z,248.25
2023-03-06T09:44:48.667Z,246.96
2023-03-06T09:45:48.424Z,246.37
2023-03-06T09:46:48.623Z,244.11
2023-03-06T09:47:48.436Z,245.52
2023-03-06T09:48:48.332Z,241.99
2023-03-06T09:49:48.925Z,238.51
2023-03-06T09:50:49.032Z,215.97
2023-03-06T09:52:48.282Z,159.43
2023-03-06T09:53:48.655Z,157.55
2023-03-06T09:54:48.307Z,150.51
2023-03-06T09:55:48.287Z,146.02
2023-03-06T09:56:49.126Z,133.00
2023-03-06T09:57:51.072Z,127.37
2023-03-06T09:58:51.126Z,122.14
2023-03-06T09:59:48.218Z,122.69
2023-03-06T10:00:48.208Z,115.56
2023-03-06T10:01:48.628Z,106.02
2023-03-06T10:02:48.332Z,100.85
2023-03-06T10:03:48.182Z,92.48
2023-03-06T10:04:48.676Z,83.17
2023-03-06T10:05:49.156Z,80.87
2023-03-06T10:06:48.167Z,75.35
2023-03-06T10:07:48.166Z,68.38
2023-03-06T10:08:48.136Z,60.19
2023-03-06T10:09:48.655Z,61.79
2023-03-06T10:10:48.123Z,49.65
2023-03-06T10:11:48.798Z,44.10
2023-03-06T10:12:48.129Z,34.66
2023-03-06T10:15:48.181Z,37.15
2023-03-06T10:16:48.071Z,36.43
2023-03-06T10:17:48.146Z,28.91
2023-03-06T10:18:48.135Z,23.65
2023-03-06T10:19:48.049Z,18.14
2023-03-06T10:20:48.135Z,27.21
2023-03-06T10:21:48.127Z,25.00
2023-03-06T10:23:00.580Z,25.95
2023-03-06T10:23:48.666Z,26.15
2023-03-06T10:24:48.023Z,26.42
2023-03-06T10:25:48.169Z,24.46
2023-03-06T10:26:48.136Z,25.72
2023-03-06T10:27:48.007Z,23.38
2023-03-06T10:28:47.995Z,25.63
2023-03-06T10:30:01.581Z,25.84
2023-03-06T10:30:48.410Z,26.06
2023-03-06T10:31:49.269Z,26.55
2023-03-06T10:32:49.461Z,19.53
2023-03-06T10:33:48.216Z,19.88
2023-03-06T10:34:48.146Z,18.24
2023-03-06T10:36:48.172Z,26.39
2023-03-06T10:37:48.130Z,28.22
2023-03-06T10:38:48.104Z,29.85
2023-03-06T10:39:48.097Z,25.84
2023-03-06T10:40:48.635Z,29.08
2023-03-06T10:41:48.062Z,25.83
2023-03-06T10:42:49.529Z,26.25
2023-03-06T10:43:48.066Z,22.02
2023-03-06T10:44:48.061Z,20.46
2023-03-06T10:45:49.399Z,23.34
2023-03-06T10:46:48.381Z,21.51
2023-03-06T10:47:48.261Z,23.34
2023-03-06T10:48:48.683Z,26.37
2023-03-06T10:49:49.148Z,26.52
2023-03-06T10:50:48.188Z,27.02
2023-03-06T10:51:48.394Z,26.05
2023-03-06T10:52:48.672Z,28.25
2023-03-06T10:53:48.506Z,28.97
2023-03-06T10:54:48.160Z,25.15
2023-03-06T10:55:48.150Z,25.75
2023-03-06T10:56:48.171Z,29.53
2023-03-06T10:57:49.173Z,30.35
2023-03-06T10:58:48.133Z,33.23
2023-03-06T10:59:48.186Z,32.20
2023-03-06T11:00:48.113Z,35.71
2023-03-06T11:01:48.787Z,33.02
2023-03-06T11:02:48.264Z,31.10
2023-03-06T11:03:48.187Z,26.49
2023-03-06T11:04:48.198Z,28.01
2023-03-06T11:05:48.065Z,25.10
2023-03-06T11:06:48.193Z,28.30
2023-03-06T11:07:48.045Z,31.30
2023-03-06T11:08:48.094Z,28.77
2023-03-06T11:09:48.034Z,29.74
2023-03-06T11:10:48.184Z,24.49
2023-03-06T11:11:48.017Z,25.70
2023-03-06T11:12:48.006Z,26.78
2023-03-06T11:13:47.999Z,26.71
2023-03-06T11:14:48.042Z,28.59
2023-03-06T11:15:48.039Z,27.99
2023-03-06T11:16:48.168Z,27.67
2023-03-06T11:17:48.020Z,25.00
2023-03-06T11:18:48.191Z,24.77
2023-03-06T11:19:47.951Z,26.41
2023-03-06T11:20:52.343Z,24.27
2023-03-06T11:21:47.935Z,24.42
2023-03-06T11:22:49.197Z,24.36
2023-03-06T11:23:48.651Z,9.50
2023-03-06T11:24:47.907Z,0.00
2023-03-06T11:25:47.899Z,4.20
2023-03-06T11:26:48.168Z,14.68
2023-03-06T11:27:47.878Z,24.31
2023-03-06T11:28:48.639Z,26.39
2023-03-06T11:29:47.858Z,26.47
2023-03-06T11:30:48.146Z,26.29
2023-03-06T11:31:48.178Z,26.01
2023-03-06T11:32:48.800Z,27.67
2023-03-06T11:33:48.423Z,29.49
2023-03-06T11:34:50.234Z,30.09
2023-03-06T11:35:47.867Z,30.04
2023-03-06T11:36:47.812Z,27.21
2023-03-06T11:37:48.171Z,28.35
2023-03-06T11:38:47.770Z,25.00
2023-03-06T11:39:48.794Z,29.21
2023-03-06T11:40:47.760Z,35.89
2023-03-06T11:41:47.748Z,43.57
2023-03-06T11:42:48.239Z,49.25
2023-03-06T11:43:48.675Z,56.32
2023-03-06T11:44:47.731Z,61.74
2023-03-06T11:45:47.874Z,61.56
2023-03-06T11:46:48.497Z,64.13
2023-03-06T11:47:47.692Z,69.16
2023-03-06T11:48:48.217Z,72.74
2023-03-06T11:49:48.110Z,73.37
2023-03-06T11:51:47.672Z,77.62
2023-03-06T11:52:47.690Z,78.56
2023-03-06T11:53:47.641Z,80.42
2023-03-06T11:54:47.635Z,83.14
2023-03-06T11:55:47.632Z,86.28
2023-03-06T11:56:47.704Z,88.64
2023-03-06T11:57:47.620Z,90.93
2023-03-06T11:58:47.628Z,92.61
2023-03-06T11:59:47.601Z,93.96
2023-03-06T12:00:47.596Z,95.64
2023-03-06T12:01:47.653Z,97.15
2023-03-06T12:02:48.558Z,96.20
2023-03-06T12:03:47.679Z,98.58
2023-03-06T12:04:47.546Z,102.71
2023-03-06T12:05:47.686Z,106.02
2023-03-06T12:06:47.530Z,107.44
2023-03-06T12:07:47.533Z,109.18
2023-03-06T12:08:47.716Z,112.70
2023-03-06T12:09:47.693Z,114.21
2023-03-06T12:10:51.578Z,116.75
2023-03-06T12:11:47.714Z,116.95
2023-03-06T12:12:47.735Z,117.61
2023-03-06T12:13:49.176Z,118.54
2023-03-06T12:14:49.888Z,120.77
2023-03-06T12:15:47.683Z,126.26
2023-03-06T12:16:47.794Z,130.26
2023-03-06T12:17:47.661Z,132.09
2023-03-06T12:18:47.710Z,133.87
2023-03-06T12:19:47.684Z,111.40
2023-03-06T12:20:47.689Z,89.93
2023-03-06T12:21:48.231Z,76.47
2023-03-06T12:22:57.526Z,61.76
2023-03-06T12:23:48.186Z,61.96
2023-03-06T12:24:47.603Z,64.09
2023-03-06T12:25:47.585Z,70.60
2023-03-06T12:26:47.597Z,81.22
2023-03-06T12:27:47.586Z,99.65
2023-03-06T12:28:48.185Z,105.76
2023-03-06T12:29:47.698Z,112.26
2023-03-06T12:30:47.559Z,116.18
2023-03-06T12:31:47.610Z,120.21
2023-03-06T12:32:47.602Z,127.49
2023-03-06T12:33:47.517Z,128.47
2023-03-06T12:34:47.735Z,130.88
2023-03-06T12:35:47.554Z,135.46
2023-03-06T12:36:47.493Z,137.44
2023-03-06T12:37:47.737Z,139.28
2023-03-06T12:38:47.479Z,143.26
2023-03-06T12:39:47.471Z,145.41
2023-03-06T12:40:47.935Z,150.39
2023-03-06T12:41:47.445Z,150.92
2023-03-06T12:42:47.453Z,152.89
2023-03-06T12:43:47.445Z,155.72
2023-03-06T12:44:47.677Z,157.43
2023-03-06T12:45:47.434Z,159.03
2023-03-06T12:46:47.399Z,161.17
2023-03-06T12:47:47.411Z,161.84
2023-03-06T12:48:48.252Z,163.31
2023-03-06T12:49:48.532Z,164.30
2023-03-06T12:50:48.209Z,167.80
2023-03-06T12:51:47.354Z,168.12
2023-03-06T12:52:48.200Z,168.93
2023-03-06T12:53:47.378Z,170.59
2023-03-06T12:54:47.339Z,171.63
2023-03-06T12:55:47.724Z,172.86
2023-03-06T12:56:48.196Z,174.03
2023-03-06T12:57:47.306Z,176.17
2023-03-06T12:58:47.324Z,176.22
2023-03-06T12:59:47.317Z,176.89
2023-03-06T13:00:49.851Z,177.80
2023-03-06T13:01:47.367Z,177.97
2023-03-06T13:02:48.311Z,178.68
2023-03-06T13:03:47.256Z,180.09
2023-03-06T13:04:47.261Z,181.90
2023-03-06T13:05:47.233Z,183.77
2023-03-06T13:06:50.820Z,185.72
2023-03-06T13:07:47.745Z,185.84
2023-03-06T13:08:47.443Z,186.12
2023-03-06T13:09:47.231Z,186.99
2023-03-06T13:10:47.244Z,187.99
2023-03-06T13:11:47.180Z,189.61
2023-03-06T13:12:47.308Z,191.39
2023-03-06T13:13:47.206Z,191.59
2023-03-06T13:14:54.193Z,191.96
2023-03-06T13:15:47.146Z,192.14
2023-03-06T13:16:47.395Z,192.78
2023-03-06T13:17:47.141Z,193.71
2023-03-06T13:18:47.262Z,194.58
2023-03-06T13:19:47.117Z,196.57
2023-03-06T13:20:47.209Z,196.61
2023-03-06T13:21:47.251Z,198.21
2023-03-06T13:22:47.087Z,197.81
2023-03-06T13:23:47.071Z,199.44
2023-03-06T13:24:47.546Z,198.60
2023-03-06T13:25:47.126Z,200.78
2023-03-06T13:26:47.247Z,201.46
2023-03-06T13:27:47.067Z,202.02
2023-03-06T13:28:48.026Z,202.20
2023-03-06T13:29:47.239Z,201.29
2023-03-06T13:30:47.023Z,203.03
2023-03-06T13:31:47.040Z,204.78
2023-03-06T13:32:47.725Z,204.99
2023-03-06T13:33:46.990Z,204.66
2023-03-06T13:34:47.058Z,205.84
2023-03-06T13:35:47.015Z,206.04
2023-03-06T13:36:47.727Z,207.52
2023-03-06T13:37:47.242Z,206.89
2023-03-06T13:38:46.932Z,207.57
2023-03-06T13:39:46.923Z,209.79
2023-03-06T13:40:47.232Z,209.69
2023-03-06T13:41:46.951Z,210.13
2023-03-06T13:42:46.899Z,209.96
2023-03-06T13:43:47.727Z,210.96
2023-03-06T13:44:46.948Z,211.73
2023-03-06T13:45:46.942Z,212.81
2023-03-06T13:46:46.875Z,213.48
2023-03-06T13:48:10.957Z,213.77